• Join FlightAware (Why Join?)
  • Login
  • US Flag 
12:29PM EST


 

Airport Tracker/Info


-or-


 

Live Flight TrackerFlight Track Log ✈ TRS632 ✈ 28-Apr-2012 ✈ KMCO - KPIT

Flight Track Log - Related Links

Times and Time Zones

All times are in EDT time to prevent confusion due to time zone crossing. See the TRS632 flight status page for this flight to view local times or setup timezone preferences in your user account.

Time Position Orientation Groundspeed Altitude Reporting Facility
EDT Latitude Longitude Course Direction KTS MPH feet Rate Location/Type
09:19AM 28.4000 -81.3000 139° Southeast 163 188 800  Level Orlando TRACON
09:19AM 28.3667 -81.2667 106° East 205 236 2,000 1,620 Climbing Orlando TRACON
09:20AM 28.3500 -81.2000 90° East 256 295 3,800 2,040 Climbing Orlando TRACON
09:21AM 28.3500 -81.1167 347° North 273 314 6,100 2,280 Climbing Orlando TRACON
09:23AM 28.4803 -81.1519 340° North 300 345 10,100 1,860 Climbing Jacksonville Center
09:24AM 28.5622 -81.1861 340° North 306 352 11,300 1,200 Climbing Jacksonville Center
09:25AM 28.6544 -81.2247 342° North 323 372 12,600 1,500 Climbing Jacksonville Center
09:26AM 28.7531 -81.2608 340° North 343 395 14,300 1,800 Climbing Jacksonville Center
09:27AM 28.8539 -81.3019 344° North 365 420 16,300 1,740 Climbing Jacksonville Center
09:28AM 28.9544 -81.3358 342° North 378 435 17,800 1,620 Climbing Jacksonville Center
09:29AM 29.0633 -81.3769 352° North 388 447 19,600 1,680 Climbing Jacksonville Center
09:30AM 29.1806 -81.3967 355° North 405 466 21,200 1,320 Climbing Jacksonville Center
09:35AM 29.8097 -81.4589 354° North 466 536 27,800 1,320 Climbing Jacksonville Center
09:36AM 29.9414 -81.4736 355° North 471 542 29,400 1,320 Climbing Jacksonville Center
09:37AM 30.0689 -81.4861 355° North 471 542 30,500 1,380 Climbing Jacksonville Center
09:38AM 30.2006 -81.4986 356° North 466 536 32,200 1,200 Climbing Jacksonville Center
09:39AM 30.3278 -81.5089 North 466 536 33,000 360 Climbing Jacksonville Center
09:40AM 30.4572 -81.4878 11° North 460 529 33,000  Level Jacksonville Center
09:41AM 30.5739 -81.4619 North 460 529 33,000  Level Jacksonville Center
09:42AM 30.7008 -81.4381 North 465 535 33,000  Level Jacksonville Center
09:43AM 30.8239 -81.4144 11° North 465 535 33,000  Level Jacksonville Center
09:44AM 30.9528 -81.3858 10° North 465 535 33,000  Level Jacksonville Center
09:45AM 31.0842 -81.3594 North 470 541 33,000  Level Jacksonville Center
09:46AM 31.2111 -81.3356 10° North 470 541 33,000  Level Jacksonville Center
09:47AM 31.3508 -81.3064 North 465 535 33,000  Level Jacksonville Center
09:48AM 31.4839 -81.2822 10° North 465 535 33,000  Level Jacksonville Center
09:49AM 31.5964 -81.2583 10° North 465 535 33,000  Level Jacksonville Center
09:50AM 31.7358 -81.2292 10° North 465 535 33,000  Level Jacksonville Center
09:51AM 31.8672 -81.2022 11° North 465 535 33,000  Level Jacksonville Center
09:52AM 31.9983 -81.1728 North 473 544 33,000  Level Jacksonville Center
09:53AM 32.1294 -81.1508 10° North 473 544 33,000 -60 Level Jacksonville Center
09:54AM 32.2564 -81.1239 10° North 467 537 32,900  Descending Jacksonville Center
09:55AM 32.3856 -81.0967 10° North 467 537 33,000  Climbing Jacksonville Center
09:56AM 32.5000 -81.0722 10° North 467 537 33,000  Level Jacksonville Center
09:57AM 32.6414 -81.0422 North 467 537 33,000  Level Jacksonville Center
09:58AM 32.7706 -81.0175 10° North 467 537 33,000  Level Jacksonville Center
09:59AM 32.8706 -80.9956 10° North 467 537 33,000  Level Jacksonville Center
10:00AM 33.0097 -80.9653 10° North 462 532 33,000  Level Jacksonville Center
10:01AM 33.1367 -80.9378 North 462 532 33,000  Level Jacksonville Center
10:02AM 33.2617 -80.9128 North 462 532 33,000  Level Jacksonville Center
10:03AM 33.3886 -80.8875 11° North 462 532 33,000  Level Jacksonville Center
10:04AM 33.5153 -80.8572 10° North 462 532 33,000  Level Jacksonville Center
10:05AM 33.6381 -80.8319 10° North 462 532 33,000  Level Jacksonville Center
10:06AM 33.7628 -80.8042 North 462 532 33,000  Level Jacksonville Center
10:07AM 33.8897 -80.7786 11° North 462 532 33,000  Level Jacksonville Center
10:08AM 34.0144 -80.7506 10° North 462 532 33,000  Level Jacksonville Center
10:09AM 34.1411 -80.7222 10° North 462 532 33,000  Level Jacksonville Center
10:11AM 34.3389 -80.6803 North 456 525 33,000  Level Atlanta Center
10:12AM 34.4636 -80.6553 11° North 463 533 33,000  Level Atlanta Center
10:13AM 34.5756 -80.6281 North 463 533 33,000  Level Atlanta Center
10:14AM 34.7019 -80.6028 10° North 468 539 33,000  Level Atlanta Center
10:15AM 34.8264 -80.5747 10° North 456 525 33,000  Level Atlanta Center
10:16AM 34.9508 -80.5467 10° North 456 525 33,000  Level Atlanta Center
10:17AM 35.0772 -80.5186 10° North 461 531 33,000  Level Atlanta Center
10:18AM 35.2039 -80.4903 10° North 461 531 33,000  Level Atlanta Center
10:19AM 35.3281 -80.4622 11° North 456 525 33,000  Level Atlanta Center
10:20AM 35.4506 -80.4339 11° North 456 525 33,000  Level Atlanta Center
10:21AM 35.5747 -80.4056 10° North 456 525 33,000  Level Atlanta Center
10:22AM 35.7094 -80.3764 10° North 449 517 33,000  Level Atlanta Center
10:23AM 35.8339 -80.3503 12° North 449 517 33,000  Level Atlanta Center
10:24AM 35.9292 -80.3256 11° North 443 510 33,000  Level Atlanta Center
10:25AM 36.0594 -80.2939 10° North 443 510 33,000  Level Atlanta Center
10:26AM 36.1817 -80.2675 10° North 443 510 33,000  Level Atlanta Center
10:27AM 36.3164 -80.2381 10° North 448 516 33,000  Level Atlanta Center
10:28AM 36.4847 -80.2008 11° North 441 507 33,000  Level Washington Center
10:29AM 36.6067 -80.1717 North 441 507 33,000  Level Washington Center
10:30AM 36.7267 -80.1478 11° North 441 507 33,000  Level Washington Center
10:31AM 36.8592 -80.1142 North 441 507 33,000 -360 Level Washington Center
10:32AM 36.9792 -80.0900 11° North 441 507 32,300 -720 Descending Washington Center
10:33AM 37.0992 -80.0606 10° North 436 502 31,600 -660 Descending Washington Center
10:34AM 37.2192 -80.0336 11° North 431 496 31,000 -300 Descending Washington Center
10:35AM 37.3433 -80.0042 10° North 436 502 31,000  Level Washington Center
10:36AM 37.4653 -79.9772 11° North 436 502 31,000  Level Washington Center
10:37AM 37.5747 -79.9494 10° North 441 507 31,000  Level Washington Center
10:38AM 37.6989 -79.9225 10° North 441 507 31,000 -120 Level Washington Center
10:39AM 37.8250 -79.8931 11° North 451 519 30,800 -540 Descending Washington Center
10:40AM 37.9469 -79.8631 10° North 451 519 30,000 -1,140 Descending Washington Center
10:41AM 38.0733 -79.8333 11° North 451 519 28,600 -1,740 Descending Washington Center
10:42AM 38.2100 -79.7989 10° North 451 519 26,600 -2,220 Descending Washington Center
10:43AM 38.3319 -79.7714 11° North 446 513 24,200 -1,320 Descending Washington Center
10:44AM 38.4497 -79.7408 10° North 440 506 24,000 -120 Descending Washington Center
10:45AM 38.5697 -79.7131 12° North 434 499 24,000  Level Washington Center
10:46AM 38.6853 -79.6822 North 429 494 24,000  Level Washington Center
10:47AM 38.7861 -79.6611 10° North 424 488 24,000 -360 Level Washington Center
10:48AM 38.8997 -79.6356 12° North 412 474 23,300 -1,020 Descending Washington Center
10:50AM 39.1331 -79.5717 12° North 420 483 21,000 -780 Descending Cleveland Center
10:51AM 39.2392 -79.5433 10° North 403 464 21,000  Level Cleveland Center
10:52AM 39.3472 -79.5175 11° North 391 450 21,000  Level Cleveland Center
10:53AM 39.4533 -79.4917 12° North 391 450 21,000 -300 Level Cleveland Center
10:54AM 39.5592 -79.4631 North 391 450 20,400 -840 Descending Cleveland Center
10:55AM 39.6675 -79.4397 13° North 391 450 19,400 -1,320 Descending Cleveland Center
10:56AM 39.7672 -79.4108 10° North 386 444 17,800 -1,500 Descending Cleveland Center
10:57AM 39.8650 -79.3875 10° North 370 426 16,500 -1,500 Descending Cleveland Center
10:58AM 39.9586 -79.3669 321° Northwest 350 403 14,900 -1,500 Descending Cleveland Center
10:59AM 40.0217 -79.4336 311° West 283 326 13,600 -1,380 Descending Cleveland Center
11:00AM 40.0725 -79.5114 309° West 268 308 12,200 -1,140 Descending Cleveland Center
11:01AM 40.1211 -79.5894 308° West 268 308 11,400 -780 Descending Cleveland Center
11:02AM 40.1719 -79.6756 308° West 286 329 10,700 -720 Descending Cleveland Center
11:03AM 40.2228 -79.7619 306° West 297 342 10,000 -360 Descending Cleveland Center
11:04AM 40.2711 -79.8483 308° West 297 342 10,000 -300 Level Cleveland Center
11:05AM 40.3197 -79.9294 305° West 297 342 9,500 -1,380 Descending Cleveland Center
11:06AM 40.3597 -80.0056 289° West 277 319 7,300 -2,040 Descending Cleveland Center
11:07AM 40.3756 -80.0672 282° West 273 314 6,100 -1,020 Descending FAA TRACON SMA TRACON (SMA)
11:07AM 40.3864 -80.1347 282° West 273 314 6,000 -120 Descending FAA TRACON SMA TRACON (SMA)
11:08AM 40.3967 -80.1972 282° West 271 312 6,000  Level FAA TRACON SMA TRACON (SMA)
11:09AM 40.4069 -80.2619 281° West 270 311 6,000 -780 Level FAA TRACON SMA TRACON (SMA)
11:09AM 40.4172 -80.3289 283° West 266 306 5,000 -1,200 Descending FAA TRACON SMA TRACON (SMA)
11:10AM 40.4256 -80.3758 330° Northwest 272 313 4,500 -900 Descending Cleveland Center
11:12AM 40.4989 -80.4306 80° East 194 223 3,000 -660 Descending FAA TRACON SMA TRACON (SMA)
11:12AM 40.5044 -80.3906 92° East 181 208 3,000 -360 Level FAA TRACON SMA TRACON (SMA)
11:13AM 40.5036 -80.3558 91° East 145 167 2,600 -720 Descending FAA TRACON SMA TRACON (SMA)
11:14AM 40.5031 -80.3236 91° East 129 148 2,100 -780 Descending FAA TRACON SMA TRACON (SMA)
11:14AM 40.5025 -80.2933 91° East 130 150 1,600 -540 Descending FAA TRACON SMA TRACON (SMA)
11:15AM 40.5022 -80.2761 91° East 127 146 1,400 -300 Descending FAA TRACON SMA TRACON (SMA)